WMSA/SZB METAR and TAF weather

Enter ICAO airport designator
Station Type Date Time Source
WMSA METAR 2022/09/26 10:00 UTC NOAA

WMSA 261000Z 17008KT 140V210 9999 FEW026 32/22 Q1006


Station Type Date Time Source
WMSA Decoded METAR 2022/09/26 10:00 UTC NOAA

Subang/Sultan Abdul Aziz Shah Airport, Malaysia (WMSA) 03-07N 101-32E
Sep 26, 2022 - 06:00 AM EDT / 2022.09.26 1000 UTC
Wind: from the S (170 degrees) at 9 MPH (8 KT) (direction variable):0
Visibility: greater than 7 mile(s):0
Sky conditions: mostly clear
Temperature: 89 F (32 C)
Heat index: 95.0 F (35.0 C):1
Dew Point: 71 F (22 C)
Relative Humidity: 55%
Pressure (altimeter): 29.71 in. Hg (1006 hPa)
ob: WMSA 261000Z 17008KT 140V210 9999 FEW026 32/22 Q1006
cycle: 10

Station Type Date Time Source
WMSA TAF 2022/09/26 06:14 UTC NOAA

TAF WMSA 260500Z 2606/2706 16006KT 9999 FEW018
TEMPO 2618/2700 4000 TSRA FEW017CB

Example: see airport list